Time;durP1;ratioP1;P1;durP2;ratioP2;P2;SDS_P1;SDS_P2;PMS_P1;PMS_P2;Temp;Humidity;BMP_temperature;BMP_pressure;BME280_temperature;BME280_humidity;BME280_pressure;Samples;Min_cycle;Max_cycle;Signal;HPM_P1;HPM_P2
2023/01/30 00:01:22;;;;;;;13.82;8.85;;;0.70;99.90;;;;;;4906649;29;20494;-78
2023/01/30 00:03:48;;;;;;;14.55;8.80;;;0.70;99.90;;;;;;4905372;29;20051;-78
2023/01/30 00:06:15;;;;;;;15.93;9.55;;;0.70;99.90;;;;;;4907094;29;20058;-77
2023/01/30 00:08:42;;;;;;;17.38;9.15;;;0.70;99.90;;;;;;4890832;29;20048;-78
2023/01/30 00:11:11;;;;;;;14.95;9.25;;;0.70;99.90;;;;;;4887723;29;20466;-78
2023/01/30 00:13:38;;;;;;;15.93;9.50;;;0.60;99.90;;;;;;4885459;29;20052;-78
2023/01/30 00:16:06;;;;;;;14.63;9.20;;;0.70;99.90;;;;;;4906356;29;20056;-78
2023/01/30 00:18:32;;;;;;;13.27;8.75;;;0.70;99.90;;;;;;4893639;29;20567;-78
2023/01/30 00:21:02;;;;;;;16.75;8.80;;;0.70;99.90;;;;;;4908621;29;20501;-78
2023/01/30 00:23:30;;;;;;;14.55;8.77;;;0.70;99.90;;;;;;4899863;29;20041;-78
2023/01/30 00:25:56;;;;;;;16.17;8.43;;;0.60;99.90;;;;;;4899849;29;20055;-79
2023/01/30 00:28:24;;;;;;;15.00;9.02;;;0.60;99.90;;;;;;4883477;29;20589;-78
2023/01/30 00:30:52;;;;;;;16.42;9.02;;;0.60;99.90;;;;;;4901780;29;20048;-78
2023/01/30 00:33:20;;;;;;;14.70;8.80;;;0.60;99.90;;;;;;4904601;29;20128;-78
2023/01/30 00:35:49;;;;;;;16.00;9.27;;;0.60;99.90;;;;;;4908941;29;20116;-78
2023/01/30 00:38:19;;;;;;;15.88;9.27;;;0.60;99.90;;;;;;4908032;29;20108;-78
2023/01/30 00:40:47;;;;;;;14.02;8.57;;;0.60;99.90;;;;;;4914565;29;20131;-77
2023/01/30 00:48:48;;;;;;;14.23;8.90;;;0.60;99.90;;;;;;4911571;29;20112;-78
2023/01/30 00:51:15;;;;;;;16.20;9.63;;;0.60;99.90;;;;;;4914019;29;20421;-77
2023/01/30 00:53:42;;;;;;;16.77;9.10;;;0.70;99.90;;;;;;4890918;29;20136;-77
2023/01/30 00:56:08;;;;;;;15.68;8.55;;;0.60;99.90;;;;;;4907337;29;20079;-78
2023/01/30 00:58:35;;;;;;;14.15;8.52;;;0.60;99.90;;;;;;4904411;29;20475;-78
2023/01/30 01:01:02;;;;;;;14.57;8.88;;;0.60;99.90;;;;;;4917362;29;20058;-78
2023/01/30 01:03:29;;;;;;;16.17;9.43;;;0.60;99.90;;;;;;4914058;29;20502;-79
2023/01/30 01:05:55;;;;;;;13.15;8.73;;;0.60;99.90;;;;;;4916151;29;20048;-78
2023/01/30 01:08:22;;;;;;;15.73;9.48;;;0.60;99.90;;;;;;4915419;29;20131;-78
2023/01/30 01:10:49;;;;;;;15.65;9.30;;;0.60;99.90;;;;;;4908493;29;20419;-78
2023/01/30 01:13:15;;;;;;;14.35;9.05;;;0.60;99.90;;;;;;4908701;29;20048;-78
2023/01/30 01:15:42;;;;;;;15.35;8.50;;;0.60;99.90;;;;;;4909238;29;20074;-79
2023/01/30 01:18:09;;;;;;;17.70;9.50;;;0.60;99.90;;;;;;4913934;29;20062;-78
2023/01/30 01:20:35;;;;;;;16.25;9.73;;;0.50;99.90;;;;;;4911250;29;20049;-78
2023/01/30 01:23:02;;;;;;;16.35;9.35;;;0.50;99.90;;;;;;4901709;29;20055;-78
2023/01/30 01:25:29;;;;;;;18.20;8.48;;;0.50;99.90;;;;;;4910404;29;20059;-78
2023/01/30 01:27:55;;;;;;;16.52;9.77;;;0.50;99.90;;;;;;4917026;29;20052;-78
2023/01/30 01:30:22;;;;;;;15.30;10.05;;;0.60;99.90;;;;;;4911810;29;20529;-79
2023/01/30 01:32:49;;;;;;;17.45;10.15;;;0.50;99.90;;;;;;4920273;29;20529;-77
2023/01/30 01:35:18;;;;;;;16.92;10.38;;;0.50;99.90;;;;;;4907730;29;20060;-78
2023/01/30 01:37:45;;;;;;;16.33;10.60;;;0.50;99.90;;;;;;4891899;29;20083;-78
2023/01/30 01:43:24;;;;;;;16.55;9.77;;;0.50;99.90;;;;;;4907681;29;20083;-78
2023/01/30 01:45:57;;;;;;;17.75;10.50;;;0.50;99.90;;;;;;4910331;29;20053;-78
2023/01/30 01:48:31;;;;;;;17.42;10.27;;;0.50;99.90;;;;;;4893234;29;20653;-78
2023/01/30 01:51:02;;;;;;;17.23;9.20;;;0.50;99.90;;;;;;4916154;29;20163;-78
2023/01/30 01:53:43;;;;;;;16.65;10.13;;;0.50;99.90;;;;;;4899242;29;20080;-78
2023/01/30 01:56:13;;;;;;;17.38;10.40;;;0.50;99.90;;;;;;4887063;29;20080;-77
2023/01/30 01:58:48;;;;;;;18.98;10.43;;;0.50;99.90;;;;;;4891672;29;20067;-78
2023/01/30 02:01:15;;;;;;;20.17;10.43;;;0.50;99.90;;;;;;4911653;29;20052;-78
2023/01/30 02:03:46;;;;;;;16.42;10.63;;;0.50;99.90;;;;;;4910168;29;20610;-78
2023/01/30 02:06:15;;;;;;;17.08;9.40;;;0.50;99.90;;;;;;4906006;29;20052;-78
2023/01/30 02:08:46;;;;;;;15.20;9.02;;;0.50;99.90;;;;;;4902170;29;20063;-77
2023/01/30 02:11:21;;;;;;;15.30;8.93;;;0.60;99.90;;;;;;4910449;29;20048;-78
2023/01/30 02:13:49;;;;;;;19.20;9.77;;;0.60;99.90;;;;;;4895363;29;20132;-77
2023/01/30 02:16:16;;;;;;;14.70;9.38;;;0.60;99.90;;;;;;4912970;29;20052;-78
2023/01/30 02:18:44;;;;;;;16.70;10.38;;;0.70;99.90;;;;;;4910808;29;20104;-78
2023/01/30 02:21:42;;;;;;;14.18;9.38;;;0.70;99.90;;;;;;4906021;29;20056;-78
2023/01/30 02:24:33;;;;;;;14.70;9.88;;;0.70;99.90;;;;;;4906180;29;20083;-78
2023/01/30 02:27:44;;;;;;;17.95;10.27;;;0.70;99.90;;;;;;4907621;29;20053;-79
2023/01/30 02:30:14;;;;;;;14.65;9.23;;;0.60;99.90;;;;;;4908881;29;20054;-76
2023/01/30 02:33:05;;;;;;;15.90;9.98;;;0.60;99.90;;;;;;4906331;29;20083;-77
2023/01/30 02:36:10;;;;;;;17.70;10.50;;;0.60;99.90;;;;;;4897553;29;20141;-78
2023/01/30 02:38:36;;;;;;;18.75;10.80;;;0.60;99.90;;;;;;4891203;29;20534;-77
2023/01/30 02:41:36;;;;;;;17.67;10.45;;;0.60;99.90;;;;;;4910604;29;20523;-77
2023/01/30 02:44:04;;;;;;;17.47;10.07;;;0.60;99.90;;;;;;4911070;29;20053;-78
2023/01/30 02:46:49;;;;;;;15.32;9.30;;;0.60;99.90;;;;;;4909718;29;20538;-78
2023/01/30 02:49:29;;;;;;;16.40;10.43;;;0.60;99.90;;;;;;4904326;29;20084;-78
2023/01/30 02:51:57;;;;;;;16.95;9.85;;;0.60;99.90;;;;;;4886111;29;20100;-78
2023/01/30 02:54:24;;;;;;;14.50;8.95;;;0.60;99.90;;;;;;4911493;29;20048;-78
2023/01/30 02:56:55;;;;;;;16.23;9.43;;;0.50;99.90;;;;;;4911575;29;20084;-78
2023/01/30 02:59:32;;;;;;;16.27;10.50;;;0.50;99.90;;;;;;4914251;29;20043;-78
2023/01/30 03:02:23;;;;;;;19.00;9.85;;;0.50;99.90;;;;;;4915109;29;20052;-78
2023/01/30 03:05:05;;;;;;;14.45;9.80;;;0.50;99.90;;;;;;4906237;29;20052;-78
2023/01/30 03:07:58;;;;;;;17.55;10.00;;;0.50;99.90;;;;;;4907009;29;20075;-78
2023/01/30 03:10:35;;;;;;;14.25;9.18;;;0.40;99.90;;;;;;4906614;29;20131;-78
2023/01/30 03:13:11;;;;;;;16.30;8.20;;;0.40;99.90;;;;;;4897794;29;20043;-78
2023/01/30 03:15:48;;;;;;;16.00;10.10;;;0.40;99.90;;;;;;4889046;29;20055;-78
2023/01/30 03:18:17;;;;;;;15.15;9.60;;;0.30;99.90;;;;;;4900141;29;20041;-78
2023/01/30 03:20:44;;;;;;;16.85;10.02;;;0.40;99.90;;;;;;4893561;29;20475;-77
2023/01/30 03:23:11;;;;;;;17.65;10.38;;;0.30;99.90;;;;;;4909078;29;20075;-78
2023/01/30 03:25:39;;;;;;;17.40;10.45;;;0.30;99.90;;;;;;4910835;29;20059;-78
2023/01/30 03:28:08;;;;;;;14.68;9.18;;;0.30;99.90;;;;;;4912717;29;20052;-78
2023/01/30 03:30:35;;;;;;;15.50;9.90;;;0.30;99.90;;;;;;4906075;29;20076;-78
2023/01/30 03:33:01;;;;;;;16.80;10.30;;;0.20;99.90;;;;;;4904700;29;20052;-77
2023/01/30 03:35:28;;;;;;;15.13;9.77;;;0.20;99.90;;;;;;4903499;29;20045;-78
2023/01/30 03:37:56;;;;;;;15.13;9.52;;;0.20;99.90;;;;;;4891318;29;20080;-78
2023/01/30 03:40:23;;;;;;;16.73;9.95;;;0.20;99.90;;;;;;4892079;29;20411;-78
2023/01/30 03:42:50;;;;;;;18.35;9.98;;;0.20;99.90;;;;;;4904703;29;20139;-78
2023/01/30 03:45:16;;;;;;;14.98;9.82;;;0.20;99.90;;;;;;4909439;29;20126;-77
2023/01/30 03:47:44;;;;;;;20.23;11.23;;;0.20;99.90;;;;;;4897545;29;20045;-78
2023/01/30 03:50:11;;;;;;;16.08;9.90;;;0.20;99.90;;;;;;4905010;29;20052;-78
2023/01/30 03:52:38;;;;;;;14.07;9.35;;;0.20;99.90;;;;;;4908342;29;20059;-78
2023/01/30 03:55:05;;;;;;;14.27;9.70;;;0.20;99.90;;;;;;4911217;29;20144;-78
2023/01/30 03:57:31;;;;;;;16.38;10.23;;;0.20;99.90;;;;;;4907157;29;20517;-78
2023/01/30 03:59:58;;;;;;;16.63;9.48;;;0.20;99.90;;;;;;4903660;29;20579;-78
2023/01/30 04:02:25;;;;;;;17.08;10.13;;;0.20;99.90;;;;;;4900838;29;20128;-78
2023/01/30 04:04:52;;;;;;;17.75;10.70;;;0.20;99.90;;;;;;4912208;29;20124;-78
2023/01/30 04:07:19;;;;;;;15.45;9.80;;;0.20;99.90;;;;;;4910589;29;20054;-77
2023/01/30 04:09:46;;;;;;;15.80;9.75;;;0.20;99.90;;;;;;4913017;29;20135;-78
2023/01/30 04:12:12;;;;;;;15.23;8.88;;;0.20;99.90;;;;;;4913999;29;20048;-78
2023/01/30 04:14:40;;;;;;;15.85;10.40;;;0.10;99.90;;;;;;4883450;29;20140;-78
2023/01/30 04:17:06;;;;;;;17.45;10.35;;;0.10;99.90;;;;;;4910560;29;20086;-78
2023/01/30 04:19:33;;;;;;;17.40;9.75;;;0.10;99.90;;;;;;4910337;29;20571;-78
2023/01/30 04:22:00;;;;;;;14.93;10.02;;;0.10;99.90;;;;;;4896466;29;20088;-78
2023/01/30 04:24:26;;;;;;;15.93;9.82;;;0.20;99.90;;;;;;4910997;29;20063;-78
2023/01/30 04:26:53;;;;;;;16.85;10.15;;;0.10;99.90;;;;;;4908146;29;20474;-78
2023/01/30 04:29:20;;;;;;;13.32;9.20;;;0.10;99.90;;;;;;4908527;29;20135;-79
2023/01/30 04:31:46;;;;;;;15.85;10.52;;;0.10;99.90;;;;;;4914963;29;20422;-78
2023/01/30 04:34:13;;;;;;;15.80;10.00;;;0.10;99.90;;;;;;4918208;29;20063;-77
2023/01/30 04:36:40;;;;;;;20.83;10.75;;;0.10;99.90;;;;;;4920762;29;20076;-77
2023/01/30 04:39:07;;;;;;;20.48;11.55;;;0.10;99.90;;;;;;4895163;29;20067;-78
2023/01/30 04:41:33;;;;;;;21.33;11.43;;;0.10;99.90;;;;;;4915609;29;20121;-77
2023/01/30 04:44:00;;;;;;;17.40;10.55;;;0.10;99.90;;;;;;4919595;29;20119;-77
2023/01/30 04:46:27;;;;;;;18.20;10.70;;;0.10;99.90;;;;;;4906848;29;20143;-78
2023/01/30 04:48:54;;;;;;;21.02;11.50;;;0.10;99.90;;;;;;4914378;29;20135;-78
2023/01/30 04:51:20;;;;;;;15.80;10.65;;;0.10;99.90;;;;;;4910934;29;20418;-78
2023/01/30 04:53:47;;;;;;;16.88;10.35;;;0.10;99.90;;;;;;4895188;29;20131;-78
2023/01/30 04:56:14;;;;;;;17.02;10.98;;;0.00;99.90;;;;;;4912933;29;20565;-78
2023/01/30 04:58:40;;;;;;;18.15;10.48;;;0.10;99.90;;;;;;4909346;29;20100;-78
2023/01/30 05:01:29;;;;;;;19.65;11.38;;;0.00;99.90;;;;;;4891035;29;20056;-78
2023/01/30 05:03:56;;;;;;;15.00;9.87;;;0.10;99.90;;;;;;4912516;29;20206;-78
2023/01/30 05:06:23;;;;;;;16.92;9.73;;;0.10;99.90;;;;;;4912078;29;20051;-78
2023/01/30 05:08:52;;;;;;;20.13;10.88;;;0.10;99.90;;;;;;4908931;29;20083;-78
2023/01/30 05:11:19;;;;;;;17.75;10.52;;;0.10;99.90;;;;;;4902992;29;20079;-78
2023/01/30 05:13:46;;;;;;;15.38;9.98;;;0.10;99.90;;;;;;4899293;29;20131;-78
2023/01/30 05:16:15;;;;;;;17.58;9.73;;;0.10;99.90;;;;;;4911748;29;20578;-77
2023/01/30 05:18:42;;;;;;;16.38;10.85;;;0.10;99.90;;;;;;4914208;29;20054;-78
2023/01/30 05:21:14;;;;;;;16.02;9.73;;;0.10;99.90;;;;;;4914811;29;20048;-79
2023/01/30 05:23:41;;;;;;;15.32;9.30;;;0.20;99.90;;;;;;4908915;29;20052;-78
2023/01/30 05:26:08;;;;;;;14.75;9.27;;;0.20;99.90;;;;;;4908581;29;20557;-78
2023/01/30 05:28:35;;;;;;;17.00;9.75;;;0.20;99.90;;;;;;4890593;29;20080;-78
2023/01/30 05:31:04;;;;;;;15.13;9.70;;;0.20;99.90;;;;;;4892790;29;20052;-78
2023/01/30 05:33:31;;;;;;;17.17;10.35;;;0.30;99.90;;;;;;4911847;29;20108;-79
2023/01/30 05:35:58;;;;;;;17.67;9.73;;;0.30;99.90;;;;;;4890373;29;20092;-78
2023/01/30 05:38:26;;;;;;;15.07;9.35;;;0.30;99.90;;;;;;4903234;29;20511;-78
2023/01/30 05:41:06;;;;;;;13.32;8.25;;;0.30;99.90;;;;;;4886380;29;20131;-78
2023/01/30 05:43:34;;;;;;;17.80;9.80;;;0.30;99.90;;;;;;4900124;29;20080;-79
2023/01/30 05:46:02;;;;;;;13.93;8.80;;;0.30;99.90;;;;;;4913944;29;20104;-77
2023/01/30 05:48:29;;;;;;;15.88;9.05;;;0.30;99.90;;;;;;4902297;29;20108;-78
2023/01/30 05:50:58;;;;;;;15.82;9.45;;;0.30;99.90;;;;;;4890414;29;20135;-77
2023/01/30 05:53:28;;;;;;;14.30;8.80;;;0.30;99.90;;;;;;4905130;29;20048;-77
2023/01/30 05:56:03;;;;;;;13.98;8.93;;;0.30;99.90;;;;;;4906316;29;20086;-78
2023/01/30 05:58:31;;;;;;;15.32;9.73;;;0.30;99.90;;;;;;4913051;29;20128;-78
2023/01/30 06:01:03;;;;;;;15.02;9.13;;;0.30;99.90;;;;;;4893331;29;20135;-78
2023/01/30 06:03:30;;;;;;;14.00;8.77;;;0.20;99.90;;;;;;4896012;29;20131;-78
2023/01/30 06:05:56;;;;;;;13.00;8.00;;;0.20;99.90;;;;;;4902650;29;20064;-78
2023/01/30 06:08:23;;;;;;;15.15;9.50;;;0.20;99.90;;;;;;4908790;29;20054;-78
2023/01/30 06:10:50;;;;;;;14.82;9.27;;;0.20;99.90;;;;;;4908099;29;20130;-78
2023/01/30 06:13:17;;;;;;;17.95;10.10;;;0.20;99.90;;;;;;4909633;29;20491;-77
2023/01/30 06:15:44;;;;;;;15.40;9.25;;;0.20;99.90;;;;;;4906640;29;20044;-77
2023/01/30 06:18:10;;;;;;;16.10;9.80;;;0.20;99.90;;;;;;4901744;29;20044;-78
2023/01/30 06:20:37;;;;;;;22.45;13.55;;;0.20;99.90;;;;;;4904130;29;20076;-78
2023/01/30 06:23:04;;;;;;;18.30;10.27;;;0.20;99.90;;;;;;4905278;29;20063;-78
2023/01/30 06:25:30;;;;;;;16.50;10.18;;;0.20;99.90;;;;;;4897457;29;20051;-78
2023/01/30 06:27:57;;;;;;;20.80;9.15;;;0.20;99.90;;;;;;4913771;29;20094;-78
2023/01/30 06:30:24;;;;;;;16.38;9.55;;;0.30;99.90;;;;;;4901135;29;20067;-78
2023/01/30 06:32:51;;;;;;;16.27;9.55;;;0.30;99.90;;;;;;4912874;29;20044;-78
2023/01/30 06:35:18;;;;;;;19.92;10.48;;;0.40;99.90;;;;;;4886473;29;20079;-78
2023/01/30 06:37:45;;;;;;;14.45;9.90;;;0.50;99.90;;;;;;4905445;29;20044;-77
2023/01/30 06:40:12;;;;;;;16.50;10.68;;;0.50;99.90;;;;;;4903355;29;20052;-76
2023/01/30 06:42:44;;;;;;;18.50;10.88;;;0.60;99.90;;;;;;4909674;29;20439;-77
2023/01/30 06:45:12;;;;;;;22.75;13.80;;;0.60;99.90;;;;;;4900008;29;20084;-78
2023/01/30 06:47:49;;;;;;;21.58;12.75;;;0.60;99.90;;;;;;4904924;29;20498;-78
2023/01/30 06:50:17;;;;;;;23.67;13.93;;;0.70;99.90;;;;;;4895068;29;20446;-78
2023/01/30 06:52:47;;;;;;;17.20;10.10;;;0.70;99.90;;;;;;4908757;29;20057;-78
2023/01/30 06:55:16;;;;;;;17.03;10.37;;;0.80;99.90;;;;;;4908259;29;20054;-78
2023/01/30 06:57:44;;;;;;;23.98;13.15;;;0.80;99.90;;;;;;4910156;29;20086;-77
2023/01/30 07:00:17;;;;;;;19.10;11.18;;;0.80;99.90;;;;;;4906713;29;20091;-78
2023/01/30 07:02:44;;;;;;;16.10;9.63;;;0.80;99.90;;;;;;4903318;29;20084;-77
2023/01/30 07:05:11;;;;;;;17.10;9.93;;;0.80;99.90;;;;;;4899653;29;20135;-77
2023/01/30 07:07:38;;;;;;;16.73;9.93;;;0.80;99.90;;;;;;4905870;29;20095;-77
2023/01/30 07:10:06;;;;;;;15.18;9.63;;;0.80;99.90;;;;;;4910105;29;20490;-77
2023/01/30 07:12:35;;;;;;;16.15;10.27;;;0.80;99.90;;;;;;4897877;29;20045;-78
2023/01/30 07:15:02;;;;;;;15.63;9.25;;;0.80;99.90;;;;;;4916284;29;20075;-78
2023/01/30 07:17:29;;;;;;;18.80;9.18;;;0.80;99.90;;;;;;4900503;29;20547;-79
2023/01/30 07:19:56;;;;;;;15.00;9.60;;;0.70;99.90;;;;;;4885717;29;20147;-78
2023/01/30 07:22:23;;;;;;;15.93;9.93;;;0.70;99.90;;;;;;4905443;29;20091;-79
2023/01/30 07:24:50;;;;;;;16.88;10.57;;;0.70;99.90;;;;;;4909742;29;20048;-78
2023/01/30 07:27:16;;;;;;;15.98;9.88;;;0.70;99.90;;;;;;4910351;29;20052;-78
2023/01/30 07:29:43;;;;;;;18.65;10.18;;;0.60;99.90;;;;;;4904363;29;20059;-78
2023/01/30 07:32:14;;;;;;;17.63;10.38;;;0.60;99.90;;;;;;4902046;29;20044;-78
2023/01/30 07:34:41;;;;;;;18.27;10.60;;;0.60;99.90;;;;;;4896330;29;20040;-78
2023/01/30 07:37:08;;;;;;;16.92;9.77;;;0.60;99.90;;;;;;4905662;29;20080;-78
2023/01/30 07:39:35;;;;;;;15.98;10.05;;;0.60;99.90;;;;;;4911618;29;20040;-78
2023/01/30 07:42:02;;;;;;;15.85;10.05;;;0.60;99.90;;;;;;4913003;29;20507;-78
2023/01/30 07:44:29;;;;;;;14.75;9.73;;;0.60;99.90;;;;;;4907434;29;20475;-78
2023/01/30 07:46:56;;;;;;;17.05;10.57;;;0.60;99.90;;;;;;4900140;29;20137;-78
2023/01/30 07:49:23;;;;;;;18.30;11.23;;;0.60;99.90;;;;;;4898539;29;20616;-78
2023/01/30 07:51:49;;;;;;;17.90;10.02;;;0.60;99.90;;;;;;4911260;29;20050;-78
2023/01/30 07:54:16;;;;;;;16.85;9.95;;;0.60;99.90;;;;;;4909959;29;20044;-79
2023/01/30 07:56:43;;;;;;;21.70;11.27;;;0.60;99.90;;;;;;4905276;29;20099;-78
2023/01/30 07:59:10;;;;;;;16.10;10.68;;;0.50;99.90;;;;;;4899172;29;20044;-78
2023/01/30 08:01:37;;;;;;;17.17;9.80;;;0.50;99.90;;;;;;4912453;29;20084;-78
2023/01/30 08:04:04;;;;;;;18.60;11.02;;;0.50;99.90;;;;;;4909997;29;20060;-79
2023/01/30 08:06:31;;;;;;;16.67;9.90;;;0.50;99.90;;;;;;4893741;29;20049;-78
2023/01/30 08:08:57;;;;;;;18.27;10.88;;;0.50;99.90;;;;;;4909797;29;20067;-79
2023/01/30 08:11:24;;;;;;;18.45;10.32;;;0.50;99.90;;;;;;4898553;29;20131;-79
2023/01/30 08:13:51;;;;;;;21.13;11.52;;;0.50;99.90;;;;;;4911131;29;20086;-80
2023/01/30 08:16:17;;;;;;;15.48;10.40;;;0.50;99.90;;;;;;4891904;29;20047;-80
2023/01/30 08:18:44;;;;;;;14.55;9.52;;;0.50;99.90;;;;;;4905760;29;20081;-79
2023/01/30 08:21:11;;;;;;;20.23;11.02;;;0.50;99.90;;;;;;4906748;29;20400;-79
2023/01/30 08:23:37;;;;;;;14.30;10.05;;;0.60;99.90;;;;;;4912454;29;20109;-79
2023/01/30 08:26:05;;;;;;;18.10;10.52;;;0.70;99.90;;;;;;4913699;29;20144;-78
2023/01/30 08:28:32;;;;;;;20.17;10.88;;;0.70;99.90;;;;;;4907124;29;20072;-77
2023/01/30 08:30:58;;;;;;;18.48;11.40;;;0.80;99.90;;;;;;4897306;29;20140;-77
2023/01/30 08:33:25;;;;;;;16.33;10.73;;;0.90;99.90;;;;;;4909573;29;20048;-79
2023/01/30 08:35:52;;;;;;;20.63;11.27;;;1.00;99.90;;;;;;4912258;29;20072;-79
2023/01/30 08:38:18;;;;;;;16.67;9.90;;;1.00;99.90;;;;;;4907642;29;20040;-78
2023/01/30 08:40:45;;;;;;;15.90;9.80;;;1.10;99.90;;;;;;4911957;29;20044;-79
2023/01/30 08:43:12;;;;;;;16.10;10.23;;;1.20;99.90;;;;;;4924314;29;20052;-78
2023/01/30 08:45:38;;;;;;;15.32;9.82;;;1.10;99.90;;;;;;4925371;29;20514;-80
2023/01/30 08:48:06;;;;;;;15.90;10.38;;;1.10;99.90;;;;;;4924337;29;20087;-77
2023/01/30 08:50:32;;;;;;;15.20;10.20;;;1.10;99.90;;;;;;4918331;29;20537;-79
2023/01/30 08:53:07;;;;;;;16.55;11.02;;;1.10;99.90;;;;;;4929698;29;20138;-79
2023/01/30 08:55:35;;;;;;;17.45;9.77;;;1.10;99.90;;;;;;4923021;29;20470;-79
2023/01/30 08:58:01;;;;;;;16.98;10.45;;;1.10;99.90;;;;;;4920825;29;20418;-78
2023/01/30 09:00:29;;;;;;;16.90;9.85;;;1.20;99.90;;;;;;4922587;29;20388;-79
2023/01/30 09:02:57;;;;;;;18.00;9.68;;;1.30;99.90;;;;;;4915160;29;20048;-79
2023/01/30 09:05:24;;;;;;;16.60;10.35;;;1.40;99.90;;;;;;4930483;29;20062;-78
2023/01/30 09:07:50;;;;;;;18.52;10.52;;;1.40;99.90;;;;;;4913808;29;20103;-78
2023/01/30 09:10:18;;;;;;;24.33;10.23;;;1.50;99.90;;;;;;4921348;29;20051;-79
2023/01/30 09:12:45;;;;;;;15.65;9.77;;;1.50;99.90;;;;;;4925142;29;20044;-78
2023/01/30 09:15:12;;;;;;;16.83;10.13;;;1.60;99.90;;;;;;4917591;29;20071;-79
2023/01/30 09:17:39;;;;;;;17.00;10.35;;;1.70;99.90;;;;;;4928680;29;20461;-78
2023/01/30 09:20:08;;;;;;;15.70;9.43;;;1.70;99.90;;;;;;4929444;29;20058;-78
2023/01/30 09:22:34;;;;;;;16.73;9.87;;;1.80;99.90;;;;;;4924862;29;20100;-78
2023/01/30 09:25:01;;;;;;;16.58;10.10;;;1.90;99.90;;;;;;4923567;29;20055;-78
2023/01/30 09:27:28;;;;;;;18.20;10.35;;;1.90;99.90;;;;;;4914494;29;20086;-78
2023/01/30 09:29:54;;;;;;;16.48;9.98;;;2.00;99.90;;;;;;4930314;29;20253;-78
2023/01/30 09:32:21;;;;;;;20.35;11.40;;;2.00;99.90;;;;;;4931770;29;20047;-79
2023/01/30 09:34:48;;;;;;;14.68;9.18;;;2.10;99.90;;;;;;4934453;29;20044;-78
2023/01/30 09:37:14;;;;;;;15.68;10.18;;;2.10;99.90;;;;;;4918524;29;20043;-77
2023/01/30 09:39:41;;;;;;;17.50;10.82;;;2.20;99.90;;;;;;4917714;29;20051;-79
2023/01/30 09:42:52;;;;;;;17.02;10.63;;;2.20;99.90;;;;;;4925575;29;20056;-78
2023/01/30 09:45:34;;;;;;;18.85;10.73;;;2.20;99.90;;;;;;4918379;29;20054;-79
2023/01/30 09:48:09;;;;;;;17.42;10.52;;;2.30;99.90;;;;;;4929914;29;20056;-78
2023/01/30 09:51:01;;;;;;;21.65;10.73;;;2.30;99.90;;;;;;4924751;29;20498;-78
2023/01/30 09:53:38;;;;;;;17.83;10.73;;;2.30;99.90;;;;;;4929102;29;20051;-78
2023/01/30 09:56:05;;;;;;;16.85;10.38;;;2.40;99.90;;;;;;4906109;29;20052;-78
2023/01/30 09:58:46;;;;;;;18.60;10.70;;;2.40;99.90;;;;;;4929526;29;20131;-79
2023/01/30 10:01:22;;;;;;;19.02;10.52;;;2.30;99.90;;;;;;4930117;29;20050;-78
2023/01/30 10:04:08;;;;;;;16.58;10.13;;;2.30;99.90;;;;;;4908118;29;20051;-78
2023/01/30 10:06:42;;;;;;;16.88;9.88;;;2.40;99.90;;;;;;4925393;29;20111;-79
2023/01/30 10:09:27;;;;;;;19.42;10.77;;;2.40;99.90;;;;;;4905437;29;20050;-78
2023/01/30 10:12:06;;;;;;;15.45;9.75;;;2.40;99.90;;;;;;4926890;29;20048;-78
2023/01/30 10:14:48;;;;;;;17.88;9.85;;;2.40;99.90;;;;;;4913400;29;20075;-78
2023/01/30 10:17:31;;;;;;;17.73;10.10;;;2.30;99.90;;;;;;4929677;29;20043;-79
2023/01/30 10:20:24;;;;;;;17.98;11.25;;;2.20;99.90;;;;;;4929806;29;20048;-79
2023/01/30 10:23:09;;;;;;;18.67;10.98;;;2.30;99.90;;;;;;4926880;29;20503;-79
2023/01/30 10:25:42;;;;;;;20.38;11.57;;;2.30;99.90;;;;;;4926861;29;20091;-80
2023/01/30 10:28:19;;;;;;;16.55;10.32;;;2.30;99.90;;;;;;4929345;29;20067;-78
2023/01/30 10:30:50;;;;;;;16.20;10.25;;;2.40;99.90;;;;;;4932002;29;20047;-80
2023/01/30 10:33:34;;;;;;;17.70;10.65;;;2.50;99.90;;;;;;4927135;29;20107;-80
2023/01/30 10:36:10;;;;;;;16.48;10.20;;;2.60;99.90;;;;;;4927435;29;20048;-79
2023/01/30 10:38:44;;;;;;;18.00;10.77;;;2.80;99.90;;;;;;4915723;29;20081;-80
2023/01/30 10:41:25;;;;;;;19.30;9.48;;;2.90;99.90;;;;;;4929259;29;20117;-80
2023/01/30 10:44:00;;;;;;;17.35;10.85;;;3.00;99.90;;;;;;4932614;29;20047;-80
2023/01/30 10:46:55;;;;;;;17.58;10.98;;;3.10;99.90;;;;;;4919531;29;20095;-80
2023/01/30 10:49:35;;;;;;;17.02;9.48;;;3.20;99.90;;;;;;4926417;29;20079;-79
2023/01/30 10:52:17;;;;;;;17.77;10.10;;;3.30;99.90;;;;;;4915592;29;20071;-79
2023/01/30 10:54:53;;;;;;;17.33;11.15;;;3.40;99.90;;;;;;4928534;29;20050;-80
2023/01/30 10:57:58;;;;;;;14.30;9.23;;;3.40;99.90;;;;;;4931190;29;20043;-79
2023/01/30 11:00:33;;;;;;;17.52;10.45;;;3.40;99.90;;;;;;4932608;29;20597;-78
2023/01/30 11:03:16;;;;;;;17.30;10.48;;;3.40;99.90;;;;;;4924628;29;20063;-79
2023/01/30 11:05:50;;;;;;;15.15;9.50;;;3.50;99.90;;;;;;4929731;29;20509;-80
2023/01/30 11:08:30;;;;;;;16.20;10.65;;;3.50;99.90;;;;;;4944182;28;20047;-78
2023/01/30 11:10:57;;;;;;;13.73;9.07;;;3.50;99.90;;;;;;4939430;28;20068;-78
2023/01/30 11:13:32;;;;;;;18.30;10.13;;;3.40;99.90;;;;;;4953733;28;20059;-78
2023/01/30 11:16:04;;;;;;;15.02;9.95;;;3.40;99.90;;;;;;4956990;28;20035;-78
2023/01/30 11:18:32;;;;;;;17.70;10.93;;;3.30;99.90;;;;;;4942081;28;20111;-81
2023/01/30 11:21:26;;;;;;;19.00;10.48;;;3.30;99.90;;;;;;4925597;29;20051;-79
2023/01/30 11:24:18;;;;;;;17.52;10.20;;;3.30;99.90;;;;;;4931112;29;20114;-77
2023/01/30 11:26:46;;;;;;;15.20;9.60;;;3.30;99.90;;;;;;4932208;29;20075;-79
2023/01/30 11:29:15;;;;;;;18.13;10.90;;;3.30;99.90;;;;;;4933577;29;20059;-78
2023/01/30 11:31:49;;;;;;;18.33;10.90;;;3.30;99.90;;;;;;4932521;29;20082;-78
2023/01/30 11:34:19;;;;;;;16.63;10.75;;;3.40;99.90;;;;;;4927666;29;20099;-79
2023/01/30 11:36:47;;;;;;;15.77;10.25;;;3.40;99.90;;;;;;4918451;29;20506;-78
2023/01/30 11:39:14;;;;;;;15.98;9.27;;;3.40;99.90;;;;;;4916631;29;20130;-80
2023/01/30 11:41:42;;;;;;;15.55;9.82;;;3.40;99.90;;;;;;4929334;29;20498;-79
2023/01/30 11:44:10;;;;;;;16.35;9.70;;;3.50;99.90;;;;;;4923970;29;20438;-79
2023/01/30 11:46:39;;;;;;;16.02;10.23;;;3.50;99.90;;;;;;4925702;29;20043;-79
2023/01/30 11:49:16;;;;;;;16.85;10.55;;;3.60;99.90;;;;;;4913343;29;20058;-79
2023/01/30 11:52:05;;;;;;;15.63;9.80;;;3.70;99.90;;;;;;4928521;29;20052;-79
2023/01/30 11:54:38;;;;;;;14.50;8.82;;;3.70;99.90;;;;;;4928822;29;20130;-79
2023/01/30 11:57:13;;;;;;;17.63;9.48;;;3.70;99.90;;;;;;4932137;29;20055;-78
2023/01/30 11:59:44;;;;;;;14.80;9.13;;;3.80;99.90;;;;;;4909058;29;20052;-80
2023/01/30 12:02:19;;;;;;;15.73;10.13;;;3.80;99.90;;;;;;4910995;29;20134;-79
2023/01/30 12:04:51;;;;;;;15.98;10.25;;;3.80;99.90;;;;;;4923743;29;20048;-79
2023/01/30 12:07:27;;;;;;;15.00;8.65;;;3.90;99.90;;;;;;4928892;29;20553;-80
2023/01/30 12:09:56;;;;;;;15.13;10.27;;;3.90;99.90;;;;;;4928538;29;20134;-78
2023/01/30 12:12:27;;;;;;;14.47;10.10;;;3.90;99.90;;;;;;4927252;29;20414;-79
2023/01/30 12:15:25;;;;;;;14.48;8.77;;;3.80;99.90;;;;;;4917350;29;20379;-79
2023/01/30 12:18:02;;;;;;;13.40;8.77;;;3.80;99.90;;;;;;4923583;29;20078;-79
2023/01/30 12:20:51;;;;;;;12.27;8.30;;;3.80;99.90;;;;;;4927943;29;20052;-80
2023/01/30 12:23:45;;;;;;;12.80;8.57;;;3.80;99.90;;;;;;4923874;29;20062;-80
2023/01/30 12:26:17;;;;;;;13.45;8.32;;;3.90;99.90;;;;;;4915898;29;20127;-79
2023/01/30 12:29:19;;;;;;;11.85;7.80;;;4.00;99.90;;;;;;4923980;29;20052;-79
2023/01/30 12:31:53;;;;;;;11.82;8.40;;;4.00;99.90;;;;;;4918230;29;20134;-79
2023/01/30 12:34:21;;;;;;;13.82;8.30;;;4.10;99.90;;;;;;4909455;29;20048;-80
2023/01/30 12:37:14;;;;;;;12.55;8.27;;;4.20;99.90;;;;;;4930351;29;20087;-79
2023/01/30 12:40:00;;;;;;;14.73;9.15;;;4.20;99.90;;;;;;4928446;29;20052;-79
2023/01/30 12:42:40;;;;;;;13.18;7.93;;;4.30;99.90;;;;;;4913095;29;20048;-79
2023/01/30 12:45:23;;;;;;;12.00;7.68;;;4.30;99.90;;;;;;4918135;29;20044;-80
2023/01/30 12:48:16;;;;;;;10.52;6.85;;;4.40;99.90;;;;;;4920642;29;20462;-80
2023/01/30 12:51:11;;;;;;;12.73;7.07;;;4.40;99.90;;;;;;4932685;29;20381;-79
2023/01/30 12:54:04;;;;;;;12.48;7.68;;;4.40;99.90;;;;;;4930915;29;20044;-79
2023/01/30 12:56:57;;;;;;;10.38;7.05;;;4.40;99.90;;;;;;4926607;29;20075;-79
2023/01/30 12:59:37;;;;;;;10.50;6.97;;;4.40;99.90;;;;;;4926072;29;20052;-79
2023/01/30 13:02:41;;;;;;;11.52;7.03;;;4.40;99.90;;;;;;4929120;29;20097;-79
2023/01/30 13:05:30;;;;;;;12.18;7.05;;;4.40;99.90;;;;;;4933903;29;20052;-79
2023/01/30 13:08:05;;;;;;;10.80;6.65;;;4.50;99.90;;;;;;4933058;29;20044;-78
2023/01/30 13:10:58;;;;;;;10.15;7.13;;;4.50;99.90;;;;;;4915351;29;20119;-79
2023/01/30 13:13:41;;;;;;;9.90;6.88;;;4.60;99.90;;;;;;4906005;29;20048;-78
2023/01/30 13:16:35;;;;;;;13.52;7.53;;;4.60;99.90;;;;;;4930804;29;20044;-79